Time;durP1;ratioP1;P1;durP2;ratioP2;P2;SDS_P1;SDS_P2;PMS_P1;PMS_P2;Temp;Humidity;BMP_temperature;BMP_pressure;BME280_temperature;BME280_humidity;BME280_pressure;Samples;Min_cycle;Max_cycle;Signal;HPM_P1;HPM_P2
2022/07/20 00:01:37;;;;;;;0.00;0.00;;;23.60;99.90;;;;;;5061338;28;20191;-71
2022/07/20 00:04:04;;;;;;;0.00;0.00;;;23.60;99.90;;;;;;5033159;28;20222;-71
2022/07/20 00:06:31;;;;;;;0.00;0.00;;;23.50;99.90;;;;;;5059565;28;21249;-71
2022/07/20 00:11:43;;;;;;;0.00;0.00;;;23.30;99.90;;;;;;5048318;28;20270;-72
2022/07/20 00:14:11;;;;;;;0.00;0.00;;;23.30;99.90;;;;;;5033086;28;20203;-71
2022/07/20 00:16:39;;;;;;;0.00;0.00;;;23.30;99.90;;;;;;5042068;28;20249;-72
2022/07/20 00:19:06;;;;;;;0.00;0.00;;;23.20;99.90;;;;;;5037130;28;20612;-71
2022/07/20 00:21:33;;;;;;;0.00;0.00;;;23.10;99.90;;;;;;5056331;28;20240;-72
2022/07/20 00:24:00;;;;;;;0.00;0.00;;;23.00;99.90;;;;;;5049908;28;20276;-72
2022/07/20 00:26:27;;;;;;;0.00;0.00;;;23.00;99.90;;;;;;5022547;28;20289;-71
2022/07/20 00:28:54;;;;;;;0.00;0.00;;;22.90;99.90;;;;;;5031251;28;20199;-71
2022/07/20 00:31:22;;;;;;;0.00;0.00;;;22.90;99.90;;;;;;5055042;28;20196;-71
2022/07/20 00:33:50;;;;;;;0.00;0.00;;;22.90;99.90;;;;;;5038375;28;20206;-71
2022/07/20 00:36:18;;;;;;;0.00;0.00;;;22.90;99.90;;;;;;5035581;28;20210;-72
2022/07/20 00:38:46;;;;;;;0.00;0.00;;;22.90;99.90;;;;;;5040812;28;20224;-71
2022/07/20 00:41:13;;;;;;;0.00;0.00;;;22.80;99.90;;;;;;5035086;28;20199;-72
2022/07/20 00:43:57;;;;;;;0.00;0.00;;;22.80;99.90;;;;;;5039448;28;20313;-72
2022/07/20 00:46:27;;;;;;;0.00;0.00;;;22.70;99.90;;;;;;5039359;28;20203;-71
2022/07/20 00:48:54;;;;;;;0.00;0.00;;;22.70;99.90;;;;;;5057201;28;20203;-71
2022/07/20 00:51:21;;;;;;;0.00;0.00;;;22.60;99.90;;;;;;5036548;28;20207;-72
2022/07/20 00:53:48;;;;;;;0.00;0.00;;;22.60;99.90;;;;;;5055440;28;20203;-71
2022/07/20 00:56:16;;;;;;;0.00;0.00;;;22.60;99.90;;;;;;5057628;28;20708;-72
2022/07/20 00:58:44;;;;;;;0.00;0.00;;;22.50;99.90;;;;;;5063029;28;20203;-72
2022/07/20 01:01:10;;;;;;;0.00;0.00;;;22.50;99.90;;;;;;5041531;28;20306;-72
2022/07/20 01:04:01;;;;;;;0.00;0.00;;;22.50;99.90;;;;;;5047325;28;20230;-71
2022/07/20 01:06:30;;;;;;;0.00;0.00;;;22.40;99.90;;;;;;5037874;28;20290;-72
2022/07/20 01:09:16;;;;;;;0.00;0.00;;;22.40;99.90;;;;;;5053368;28;20203;-71
2022/07/20 01:11:43;;;;;;;0.00;0.00;;;22.30;99.90;;;;;;5048904;28;20194;-72
2022/07/20 01:14:11;;;;;;;0.00;0.00;;;22.30;99.90;;;;;;5042617;28;20205;-71
2022/07/20 01:16:39;;;;;;;0.00;0.00;;;22.30;99.90;;;;;;5033401;28;20199;-72
2022/07/20 01:19:08;;;;;;;0.00;0.00;;;22.30;99.90;;;;;;5033111;28;20202;-71
2022/07/20 01:21:40;;;;;;;0.00;0.00;;;22.20;99.90;;;;;;5030866;28;20211;-71
2022/07/20 01:24:27;;;;;;;0.00;0.00;;;22.20;99.90;;;;;;5050921;28;20242;-71
2022/07/20 01:26:54;;;;;;;0.00;0.00;;;22.20;99.90;;;;;;5034111;28;20195;-72
2022/07/20 01:29:22;;;;;;;0.00;0.00;;;22.10;99.90;;;;;;5035838;28;20302;-71
2022/07/20 01:31:49;;;;;;;0.00;0.00;;;22.10;99.90;;;;;;5035751;28;20207;-72
2022/07/20 01:34:18;;;;;;;0.00;0.00;;;22.00;99.90;;;;;;5037765;28;20214;-72
2022/07/20 01:36:48;;;;;;;0.00;0.00;;;22.00;99.90;;;;;;5036208;28;20202;-72
2022/07/20 01:39:34;;;;;;;0.00;0.00;;;21.90;99.90;;;;;;5049148;28;20214;-72
2022/07/20 01:42:04;;;;;;;0.00;0.00;;;21.80;99.90;;;;;;5041723;28;20230;-72
2022/07/20 01:44:31;;;;;;;0.00;0.00;;;21.70;99.90;;;;;;5031501;28;20253;-71
2022/07/20 01:46:58;;;;;;;0.00;0.00;;;21.60;99.90;;;;;;5032153;28;20204;-72
2022/07/20 01:49:27;;;;;;;0.00;0.00;;;21.60;99.90;;;;;;5031784;28;20191;-72
2022/07/20 01:51:56;;;;;;;0.00;0.00;;;21.60;99.90;;;;;;5048884;28;20286;-72
2022/07/20 01:54:23;;;;;;;0.00;0.00;;;21.50;99.90;;;;;;5033860;28;20266;-72
2022/07/20 01:56:50;;;;;;;0.00;0.00;;;21.50;99.90;;;;;;5039441;28;20199;-72
2022/07/20 01:59:16;;;;;;;0.00;0.00;;;21.40;99.90;;;;;;5044175;28;20199;-72
2022/07/20 02:01:43;;;;;;;0.00;0.00;;;21.40;99.90;;;;;;5049229;28;20206;-72
2022/07/20 02:04:10;;;;;;;0.00;0.00;;;21.30;99.90;;;;;;5033631;28;20417;-72
2022/07/20 02:06:38;;;;;;;0.00;0.00;;;21.30;99.90;;;;;;5054837;28;20202;-72
2022/07/20 02:09:06;;;;;;;0.00;0.00;;;21.30;99.90;;;;;;5039200;28;20198;-72
2022/07/20 02:11:33;;;;;;;0.00;0.00;;;21.30;99.90;;;;;;5041347;28;20203;-72
2022/07/20 02:14:00;;;;;;;0.00;0.00;;;21.30;99.90;;;;;;5034427;28;20300;-72
2022/07/20 02:16:27;;;;;;;0.00;0.00;;;21.30;99.90;;;;;;5037811;28;20218;-72
2022/07/20 02:18:56;;;;;;;0.00;0.00;;;21.30;99.90;;;;;;5036210;28;20211;-71
2022/07/20 02:21:24;;;;;;;0.00;0.00;;;21.20;99.90;;;;;;5058280;28;20206;-72
2022/07/20 02:23:52;;;;;;;0.00;0.00;;;21.20;99.90;;;;;;5036183;28;20326;-72
2022/07/20 02:26:20;;;;;;;0.00;0.00;;;21.20;99.90;;;;;;5030816;28;20213;-72
2022/07/20 02:28:48;;;;;;;0.00;0.00;;;21.10;99.90;;;;;;5057091;28;20207;-72
2022/07/20 02:31:15;;;;;;;0.00;0.00;;;21.10;99.90;;;;;;5050872;28;20209;-72
2022/07/20 02:33:42;;;;;;;0.00;0.00;;;21.10;99.90;;;;;;5043637;28;20202;-72
2022/07/20 02:36:09;;;;;;;0.00;0.00;;;21.00;99.90;;;;;;5056496;28;20222;-72
2022/07/20 02:38:37;;;;;;;0.00;0.00;;;20.90;99.90;;;;;;5057807;28;20249;-71
2022/07/20 02:41:04;;;;;;;0.00;0.00;;;20.90;99.90;;;;;;5052760;28;20640;-72
2022/07/20 02:43:33;;;;;;;0.00;0.00;;;20.90;99.90;;;;;;5049155;28;21190;-72
2022/07/20 02:46:00;;;;;;;0.00;0.00;;;20.80;99.90;;;;;;5055934;28;20242;-72
2022/07/20 02:48:27;;;;;;;0.00;0.00;;;20.80;99.90;;;;;;5033364;28;20219;-72
2022/07/20 02:50:55;;;;;;;0.00;0.00;;;20.80;99.90;;;;;;5035610;28;20199;-72
2022/07/20 02:53:22;;;;;;;0.00;0.00;;;20.70;99.90;;;;;;5029803;28;20257;-72
2022/07/20 02:55:49;;;;;;;0.00;0.00;;;20.70;99.90;;;;;;5026434;28;20310;-72
2022/07/20 02:58:17;;;;;;;0.00;0.00;;;20.70;99.90;;;;;;5033303;28;20215;-72
2022/07/20 03:00:45;;;;;;;0.00;0.00;;;20.70;99.90;;;;;;5058292;28;20199;-72
2022/07/20 03:03:13;;;;;;;0.00;0.00;;;20.70;99.90;;;;;;5055736;28;20230;-73
2022/07/20 03:05:40;;;;;;;0.00;0.00;;;20.60;99.90;;;;;;5032149;28;20288;-72
2022/07/20 03:08:08;;;;;;;0.00;0.00;;;20.60;99.90;;;;;;5039754;28;20286;-72
2022/07/20 03:10:36;;;;;;;0.00;0.00;;;20.50;99.90;;;;;;5040933;28;20259;-71
2022/07/20 03:13:04;;;;;;;0.00;0.00;;;20.50;99.90;;;;;;5043582;28;20252;-71
2022/07/20 03:15:31;;;;;;;0.00;0.00;;;20.50;99.90;;;;;;5034751;28;20229;-72
2022/07/20 03:18:00;;;;;;;0.00;0.00;;;20.50;99.90;;;;;;5052500;28;20203;-71
2022/07/20 03:20:28;;;;;;;0.00;0.00;;;20.50;99.90;;;;;;5037242;28;20198;-71
2022/07/20 03:22:56;;;;;;;0.00;0.00;;;20.50;99.90;;;;;;5036529;28;20210;-71
2022/07/20 03:25:24;;;;;;;0.00;0.00;;;20.50;99.90;;;;;;5042567;28;20227;-71
2022/07/20 03:27:54;;;;;;;0.00;0.00;;;20.40;99.90;;;;;;5023343;28;20207;-71
2022/07/20 03:30:21;;;;;;;0.00;0.00;;;20.40;99.90;;;;;;5051168;28;20199;-72
2022/07/20 03:32:48;;;;;;;0.00;0.00;;;20.40;99.90;;;;;;5036355;28;20207;-72
2022/07/20 03:35:17;;;;;;;0.00;0.00;;;20.40;99.90;;;;;;5039650;28;20241;-71
2022/07/20 03:37:44;;;;;;;0.00;0.00;;;20.40;99.90;;;;;;5053273;28;20660;-72
2022/07/20 03:40:12;;;;;;;0.00;0.00;;;20.40;99.90;;;;;;5051358;28;20715;-72
2022/07/20 03:42:39;;;;;;;0.00;0.00;;;20.40;99.90;;;;;;5034760;28;20190;-72
2022/07/20 03:45:08;;;;;;;0.00;0.00;;;20.40;99.90;;;;;;5031307;28;20274;-72
2022/07/20 03:47:35;;;;;;;0.00;0.00;;;20.40;99.90;;;;;;5033399;28;20725;-72
2022/07/20 03:50:02;;;;;;;0.00;0.00;;;20.40;99.90;;;;;;5034346;28;20222;-72
2022/07/20 03:52:30;;;;;;;0.00;0.00;;;20.40;99.90;;;;;;5036999;28;20205;-72
2022/07/20 03:54:57;;;;;;;0.00;0.00;;;20.40;99.90;;;;;;5026505;28;20211;-71
2022/07/20 03:57:24;;;;;;;0.00;0.00;;;20.50;99.90;;;;;;5039516;28;20196;-71
2022/07/20 03:59:51;;;;;;;0.00;0.00;;;20.50;99.90;;;;;;5037386;28;20202;-72
2022/07/20 04:02:19;;;;;;;0.00;0.00;;;20.60;99.90;;;;;;5033194;28;20209;-73
2022/07/20 04:04:46;;;;;;;0.00;0.00;;;20.70;99.90;;;;;;5037297;28;20215;-72
2022/07/20 04:07:13;;;;;;;0.00;0.00;;;20.70;99.90;;;;;;5055114;28;20203;-72
2022/07/20 04:09:50;;;;;;;0.00;0.00;;;20.80;99.90;;;;;;5042353;28;20211;-72
2022/07/20 04:12:20;;;;;;;0.00;0.00;;;20.90;99.90;;;;;;5038313;28;20203;-72
2022/07/20 04:14:49;;;;;;;0.00;0.00;;;20.90;99.90;;;;;;5041210;28;20222;-73
2022/07/20 04:17:17;;;;;;;0.00;0.00;;;21.00;99.90;;;;;;5036214;28;20196;-73
2022/07/20 04:19:44;;;;;;;0.00;0.00;;;21.10;99.90;;;;;;5029512;28;20282;-73
2022/07/20 04:22:11;;;;;;;0.00;0.00;;;21.20;99.90;;;;;;5029764;28;20208;-73
2022/07/20 04:24:38;;;;;;;0.00;0.00;;;21.30;99.90;;;;;;5056322;28;20224;-73
2022/07/20 04:27:07;;;;;;;0.00;0.00;;;21.30;99.90;;;;;;5032249;28;20211;-72
2022/07/20 04:29:34;;;;;;;0.00;0.00;;;21.40;99.90;;;;;;5036547;28;20226;-74
2022/07/20 04:32:02;;;;;;;0.00;0.00;;;21.60;99.90;;;;;;5062438;28;20206;-74
2022/07/20 04:34:29;;;;;;;0.00;0.00;;;21.70;99.90;;;;;;5043878;28;20622;-73
2022/07/20 04:36:57;;;;;;;0.00;0.00;;;21.90;99.90;;;;;;5058537;28;20202;-73
2022/07/20 04:39:24;;;;;;;0.00;0.00;;;22.00;99.90;;;;;;5034593;28;20195;-72
2022/07/20 04:41:51;;;;;;;0.00;0.00;;;22.10;99.90;;;;;;5038062;28;20222;-72
2022/07/20 04:44:19;;;;;;;0.00;0.00;;;22.20;99.90;;;;;;5042411;28;20246;-72
2022/07/20 04:46:46;;;;;;;0.00;0.00;;;22.40;99.90;;;;;;5052569;28;20215;-73
2022/07/20 04:49:15;;;;;;;0.00;0.00;;;22.50;99.90;;;;;;5054092;28;20190;-74
2022/07/20 04:51:43;;;;;;;0.00;0.00;;;22.60;99.90;;;;;;5044274;28;20206;-72
2022/07/20 04:54:10;;;;;;;0.00;0.00;;;22.70;99.90;;;;;;5034979;28;20187;-72
2022/07/20 04:56:37;;;;;;;0.00;0.00;;;22.80;99.90;;;;;;5059826;28;20203;-72
2022/07/20 04:59:05;;;;;;;0.00;0.00;;;22.90;99.90;;;;;;5045040;28;20211;-72
2022/07/20 05:01:33;;;;;;;0.00;0.00;;;23.00;99.90;;;;;;5036639;28;20246;-72
2022/07/20 05:04:00;;;;;;;0.00;0.00;;;23.20;99.90;;;;;;5046493;28;20225;-73
2022/07/20 05:06:27;;;;;;;0.00;0.00;;;23.30;99.90;;;;;;5034201;28;20279;-73
2022/07/20 05:08:54;;;;;;;0.00;0.00;;;23.40;99.90;;;;;;5034701;28;20293;-73
2022/07/20 05:11:21;;;;;;;0.00;0.00;;;23.50;99.90;;;;;;5036938;28;20215;-73
2022/07/20 05:13:48;;;;;;;0.00;0.00;;;23.60;99.90;;;;;;5038117;28;20192;-73
2022/07/20 05:16:16;;;;;;;0.00;0.00;;;23.70;99.90;;;;;;5055927;28;20243;-74
2022/07/20 05:18:44;;;;;;;0.00;0.00;;;23.90;99.90;;;;;;5035063;28;20325;-72
2022/07/20 05:21:11;;;;;;;0.00;0.00;;;24.00;99.90;;;;;;5038318;28;20199;-72
2022/07/20 05:23:39;;;;;;;0.00;0.00;;;24.20;99.90;;;;;;5040236;28;20214;-73
2022/07/20 05:26:06;;;;;;;0.00;0.00;;;24.30;99.90;;;;;;5023759;28;20324;-73
2022/07/20 05:28:33;;;;;;;0.00;0.00;;;24.50;99.90;;;;;;5034426;28;20198;-73
2022/07/20 05:31:00;;;;;;;0.00;0.00;;;24.60;99.90;;;;;;5040682;28;20195;-72
2022/07/20 05:33:27;;;;;;;0.00;0.00;;;24.70;99.90;;;;;;5060072;28;20230;-73
2022/07/20 05:35:55;;;;;;;0.00;0.00;;;24.80;99.90;;;;;;5038887;28;20254;-74
2022/07/20 05:38:22;;;;;;;0.00;0.00;;;24.90;99.90;;;;;;5034418;28;20269;-73
2022/07/20 05:40:49;;;;;;;0.00;0.00;;;25.00;99.90;;;;;;5041451;28;20273;-73
2022/07/20 05:43:16;;;;;;;0.00;0.00;;;25.20;99.90;;;;;;5051856;28;20196;-74
2022/07/20 05:45:43;;;;;;;0.00;0.00;;;25.30;99.90;;;;;;5035763;28;20230;-72
2022/07/20 05:48:11;;;;;;;0.00;0.00;;;25.40;99.90;;;;;;5024182;28;20206;-72
2022/07/20 05:50:39;;;;;;;0.00;0.00;;;25.50;99.90;;;;;;5046011;28;20214;-71
2022/07/20 05:53:09;;;;;;;0.00;0.00;;;25.60;99.90;;;;;;5036370;28;20199;-71
2022/07/20 05:55:36;;;;;;;0.00;0.00;;;25.70;99.90;;;;;;5039921;28;20214;-71
2022/07/20 05:58:05;;;;;;;0.00;0.00;;;25.80;99.90;;;;;;5040383;28;20218;-72
2022/07/20 06:00:32;;;;;;;0.00;0.00;;;;;;;;;;5039808;28;20229;-72
2022/07/20 06:03:00;;;;;;;0.00;0.00;;;;;;;;;;5041168;28;20203;-73
2022/07/20 06:05:27;;;;;;;0.00;0.00;;;;;;;;;;5037649;28;20219;-72
2022/07/20 06:07:56;;;;;;;0.00;0.00;;;;;;;;;;5029196;28;20210;-72
2022/07/20 06:10:24;;;;;;;0.00;0.00;;;;;;;;;;5043252;28;20203;-73
2022/07/20 06:12:51;;;;;;;0.00;0.00;;;;;;;;;;5059735;28;20194;-72
2022/07/20 06:15:19;;;;;;;0.00;0.00;;;;;;;;;;5055863;28;20210;-72
2022/07/20 06:17:47;;;;;;;0.00;0.00;;;;;;;;;;5037599;28;20203;-72
2022/07/20 06:20:15;;;;;;;0.00;0.00;;;27.10;99.90;;;;;;5054602;28;20375;-72
2022/07/20 06:22:44;;;;;;;0.00;0.00;;;27.10;99.90;;;;;;5030793;28;20218;-72
2022/07/20 06:25:12;;;;;;;0.00;0.00;;;27.10;99.90;;;;;;5044329;28;20238;-72
2022/07/20 06:27:41;;;;;;;0.00;0.00;;;27.10;99.90;;;;;;5049613;28;20214;-72
2022/07/20 06:30:09;;;;;;;0.00;0.00;;;27.20;99.90;;;;;;5036959;28;20234;-72
2022/07/20 06:32:37;;;;;;;0.00;0.00;;;27.40;99.90;;;;;;5041830;28;20248;-73
2022/07/20 06:35:06;;;;;;;0.00;0.00;;;27.40;99.90;;;;;;5027959;28;20247;-72
2022/07/20 06:37:33;;;;;;;0.00;0.00;;;27.50;99.90;;;;;;5032985;28;20693;-73
2022/07/20 06:40:00;;;;;;;0.00;0.00;;;27.70;99.90;;;;;;5031954;28;20207;-72
2022/07/20 06:42:27;;;;;;;0.00;0.00;;;27.90;99.90;;;;;;5035901;28;20231;-73
2022/07/20 06:44:56;;;;;;;0.00;0.00;;;28.00;99.90;;;;;;5036818;28;20223;-74
2022/07/20 06:47:24;;;;;;;0.00;0.00;;;28.20;99.90;;;;;;5034414;28;20669;-73
2022/07/20 06:49:52;;;;;;;0.00;0.00;;;28.30;99.90;;;;;;5055203;28;20268;-73
2022/07/20 06:52:18;;;;;;;0.00;0.00;;;28.60;99.90;;;;;;5051183;28;20277;-72
2022/07/20 06:54:45;;;;;;;0.00;0.00;;;28.70;99.90;;;;;;5030315;28;20603;-73
2022/07/20 06:57:13;;;;;;;0.00;0.00;;;28.80;99.90;;;;;;5034487;28;20205;-73
2022/07/20 06:59:40;;;;;;;0.00;0.00;;;28.90;99.90;;;;;;5034702;28;20197;-73
2022/07/20 07:02:09;;;;;;;0.00;0.00;;;29.00;99.90;;;;;;5041755;28;20223;-72
2022/07/20 07:04:36;;;;;;;0.00;0.00;;;29.20;99.90;;;;;;5029912;28;20299;-73
2022/07/20 07:07:03;;;;;;;0.00;0.00;;;29.30;99.90;;;;;;5031890;28;20298;-74
2022/07/20 07:09:30;;;;;;;0.00;0.00;;;29.50;99.90;;;;;;5037271;28;20206;-72
2022/07/20 07:11:57;;;;;;;0.00;0.00;;;29.50;99.90;;;;;;5046381;28;20302;-73
2022/07/20 07:14:26;;;;;;;0.00;0.00;;;29.60;99.90;;;;;;5032676;28;20286;-74
2022/07/20 07:16:54;;;;;;;0.00;0.00;;;29.70;99.90;;;;;;5027653;28;20232;-73
2022/07/20 07:19:22;;;;;;;0.00;0.00;;;29.90;99.90;;;;;;5040084;28;20211;-74
2022/07/20 07:21:50;;;;;;;0.00;0.00;;;30.00;99.90;;;;;;5035245;28;20312;-74
2022/07/20 07:24:17;;;;;;;0.00;0.00;;;30.10;99.90;;;;;;5032240;28;20296;-72
2022/07/20 07:26:44;;;;;;;0.00;0.00;;;30.20;99.90;;;;;;5053029;28;20204;-72
2022/07/20 07:29:11;;;;;;;0.00;0.00;;;30.50;99.90;;;;;;5031798;28;20210;-75
2022/07/20 07:31:38;;;;;;;0.00;0.00;;;30.60;99.90;;;;;;5037710;28;20206;-72
2022/07/20 07:34:05;;;;;;;0.00;0.00;;;;;;;;;;5041897;28;20224;-73
2022/07/20 07:36:34;;;;;;;0.00;0.00;;;;;;;;;;5033776;28;20208;-72
2022/07/20 07:39:02;;;;;;;0.00;0.00;;;;;;;;;;5034772;28;20206;-73
2022/07/20 07:41:29;;;;;;;0.00;0.00;;;;;;;;;;5031778;28;20231;-73
2022/07/20 07:43:57;;;;;;;0.00;0.00;;;;;;;;;;5031120;28;20199;-74
2022/07/20 07:46:24;;;;;;;0.00;0.00;;;;;;;;;;5030228;28;20280;-72
2022/07/20 07:48:52;;;;;;;0.00;0.00;;;;;;;;;;5053227;28;20211;-74
2022/07/20 07:51:19;;;;;;;0.00;0.00;;;;;;;;;;5035574;28;20196;-72
2022/07/20 07:53:48;;;;;;;0.00;0.00;;;;;;;;;;5030512;28;20202;-73
2022/07/20 07:56:15;;;;;;;0.00;0.00;;;;;;;;;;5037898;28;20219;-73
2022/07/20 07:58:43;;;;;;;0.00;0.00;;;;;;;;;;5039408;28;20199;-72
2022/07/20 08:01:10;;;;;;;0.00;0.00;;;;;;;;;;5061663;28;20209;-73
2022/07/20 08:03:38;;;;;;;0.00;0.00;;;;;;;;;;5036527;28;20203;-73
2022/07/20 08:06:05;;;;;;;0.00;0.00;;;;;;;;;;5031523;28;20219;-73
2022/07/20 08:08:33;;;;;;;0.00;0.00;;;;;;;;;;5035847;28;20666;-72
2022/07/20 08:11:02;;;;;;;0.00;0.00;;;;;;;;;;5034652;28;20632;-72
2022/07/20 08:13:30;;;;;;;0.00;0.00;;;;;;;;;;5038855;28;20298;-72
2022/07/20 08:15:58;;;;;;;0.00;0.00;;;;;;;;;;5035322;28;20692;-74
2022/07/20 08:18:25;;;;;;;0.00;0.00;;;;;;;;;;5031826;28;20188;-72
2022/07/20 08:20:53;;;;;;;0.00;0.00;;;;;;;;;;5041783;28;20256;-74
2022/07/20 08:23:20;;;;;;;0.00;0.00;;;;;;;;;;5039751;28;20198;-74
2022/07/20 08:25:48;;;;;;;0.00;0.00;;;;;;;;;;5028700;28;20226;-74
2022/07/20 08:28:18;;;;;;;0.00;0.00;;;;;;;;;;5031336;28;20199;-71
2022/07/20 08:30:47;;;;;;;0.00;0.00;;;;;;;;;;5057373;28;20260;-74
2022/07/20 08:33:14;;;;;;;0.00;0.00;;;;;;;;;;5037628;28;20202;-73
2022/07/20 08:35:43;;;;;;;0.00;0.00;;;;;;;;;;5040494;28;20700;-72
2022/07/20 08:38:11;;;;;;;0.00;0.00;;;;;;;;;;5035021;28;20661;-73
2022/07/20 08:40:39;;;;;;;0.00;0.00;;;;;;;;;;5029137;28;20210;-73
2022/07/20 08:43:06;;;;;;;0.00;0.00;;;;;;;;;;5031331;28;20191;-73
2022/07/20 08:45:36;;;;;;;0.00;0.00;;;;;;;;;;5037991;28;20239;-73
2022/07/20 08:48:07;;;;;;;0.00;0.00;;;;;;;;;;5040302;28;20226;-73
2022/07/20 08:50:34;;;;;;;0.00;0.00;;;;;;;;;;5039682;28;20218;-74
2022/07/20 08:53:02;;;;;;;0.00;0.00;;;;;;;;;;5034173;28;20198;-74
2022/07/20 08:55:30;;;;;;;0.00;0.00;;;;;;;;;;5041702;28;20215;-72
2022/07/20 08:57:58;;;;;;;0.00;0.00;;;;;;;;;;5055599;28;20231;-74
2022/07/20 09:00:25;;;;;;;0.00;0.00;;;;;;;;;;5061083;28;20348;-73
2022/07/20 09:02:55;;;;;;;0.00;0.00;;;;;;;;;;5062725;28;20205;-73
2022/07/20 09:05:23;;;;;;;0.00;0.00;;;;;;;;;;5039783;28;20291;-73
2022/07/20 09:07:52;;;;;;;0.00;0.00;;;;;;;;;;5048246;28;20215;-74
2022/07/20 09:10:20;;;;;;;0.00;0.00;;;;;;;;;;5044566;28;20217;-73
2022/07/20 09:12:55;;;;;;;0.00;0.00;;;;;;;;;;5034428;28;20209;-74
2022/07/20 09:15:27;;;;;;;0.00;0.00;;;;;;;;;;5052041;28;20227;-73
2022/07/20 09:18:13;;;;;;;0.00;0.00;;;;;;;;;;5034917;28;20221;-72
2022/07/20 09:20:41;;;;;;;0.00;0.00;;;;;;;;;;5037214;28;20655;-74
2022/07/20 09:23:10;;;;;;;0.00;0.00;;;;;;;;;;5038632;28;20212;-73
2022/07/20 09:25:39;;;;;;;0.00;0.00;;;;;;;;;;5029199;28;20225;-73
2022/07/20 09:28:07;;;;;;;0.00;0.00;;;;;;;;;;5030965;28;20211;-74
2022/07/20 09:30:34;;;;;;;0.00;0.00;;;;;;;;;;5039002;28;20210;-74
2022/07/20 09:33:02;;;;;;;0.00;0.00;;;;;;;;;;5043008;28;20231;-74
2022/07/20 09:35:32;;;;;;;0.00;0.00;;;;;;;;;;5044537;28;20270;-75
2022/07/20 09:38:02;;;;;;;0.00;0.00;;;;;;;;;;5040638;28;20207;-74
2022/07/20 09:40:29;;;;;;;0.00;0.00;;;;;;;;;;5037900;28;20208;-74
2022/07/20 09:42:57;;;;;;;0.00;0.00;;;;;;;;;;5038070;28;20295;-75
2022/07/20 09:45:29;;;;;;;0.00;0.00;;;;;;;;;;5038872;28;20243;-74
2022/07/20 09:48:03;;;;;;;0.00;0.00;;;;;;;;;;5036953;28;20204;-73
2022/07/20 09:50:33;;;;;;;0.00;0.00;;;;;;;;;;5036708;28;20222;-75
2022/07/20 09:53:00;;;;;;;0.00;0.00;;;;;;;;;;5037482;28;20226;-74
2022/07/20 09:55:28;;;;;;;0.00;0.00;;;;;;;;;;5030717;28;20276;-73
2022/07/20 09:57:56;;;;;;;0.00;0.00;;;;;;;;;;5056655;28;20299;-74
2022/07/20 10:00:23;;;;;;;0.00;0.00;;;;;;;;;;5034862;28;20232;-72
2022/07/20 10:02:53;;;;;;;0.00;0.00;;;;;;;;;;5040396;28;20577;-73
2022/07/20 10:05:21;;;;;;;0.00;0.00;;;;;;;;;;5030994;28;20305;-72
2022/07/20 10:07:51;;;;;;;0.00;0.00;;;;;;;;;;5039675;28;20203;-73
2022/07/20 10:10:18;;;;;;;0.00;0.00;;;;;;;;;;5038571;28;20204;-73
2022/07/20 10:12:46;;;;;;;0.00;0.00;;;;;;;;;;5040210;28;20208;-73
2022/07/20 10:15:14;;;;;;;0.00;0.00;;;;;;;;;;5037966;28;20231;-72
2022/07/20 10:17:43;;;;;;;0.00;0.00;;;;;;;;;;5038175;28;20630;-74
2022/07/20 10:20:26;;;;;;;0.00;0.00;;;;;;;;;;5036989;28;20661;-74
2022/07/20 10:23:08;;;;;;;0.00;0.00;;;;;;;;;;5037892;28;20681;-73
2022/07/20 10:25:38;;;;;;;0.00;0.00;;;;;;;;;;5032038;28;20245;-72
2022/07/20 10:28:21;;;;;;;0.00;0.00;;;;;;;;;;5036024;28;20193;-72
2022/07/20 10:30:55;;;;;;;0.00;0.00;;;;;;;;;;5029909;28;20217;-73
2022/07/20 10:33:23;;;;;;;0.00;0.00;;;;;;;;;;5039144;28;20206;-74
2022/07/20 10:35:51;;;;;;;0.00;0.00;;;;;;;;;;5037513;28;20218;-72
2022/07/20 10:38:19;;;;;;;0.00;0.00;;;;;;;;;;5026448;28;20724;-72
2022/07/20 10:44:11;;;;;;;0.00;0.00;;;;;;;;;;5053896;28;20205;-74
2022/07/20 10:46:39;;;;;;;0.00;0.00;;;;;;;;;;5035978;28;20239;-73
2022/07/20 10:49:06;;;;;;;0.00;0.00;;;;;;;;;;5055009;28;20234;-73
2022/07/20 10:51:33;;;;;;;0.00;0.00;;;;;;;;;;5058188;28;20211;-72
2022/07/20 10:54:16;;;;;;;0.00;0.00;;;;;;;;;;5044826;28;20202;-74
2022/07/20 10:56:46;;;;;;;0.00;0.00;;;;;;;;;;5036354;28;20209;-74
2022/07/20 10:59:13;;;;;;;0.00;0.00;;;;;;;;;;5051795;28;20227;-73
2022/07/20 11:01:41;;;;;;;0.00;0.00;;;;;;;;;;5052577;28;20211;-73
2022/07/20 11:04:13;;;;;;;0.00;0.00;;;;;;;;;;5031872;28;20606;-73
2022/07/20 11:06:40;;;;;;;0.00;0.00;;;;;;;;;;5036728;28;20280;-73
2022/07/20 11:09:11;;;;;;;0.00;0.00;;;;;;;;;;5033288;28;20297;-73
2022/07/20 11:11:40;;;;;;;0.00;0.00;;;;;;;;;;5040587;28;20198;-74
2022/07/20 11:14:10;;;;;;;0.00;0.00;;;;;;;;;;5016197;28;20206;-74
2022/07/20 11:16:39;;;;;;;0.00;0.00;;;;;;;;;;5023334;28;20201;-73
2022/07/20 11:19:06;;;;;;;0.00;0.00;;;;;;;;;;5047972;28;20192;-73
2022/07/20 11:21:35;;;;;;;0.00;0.00;;;;;;;;;;5036480;28;20217;-73
2022/07/20 11:24:03;;;;;;;0.00;0.00;;;;;;;;;;5021581;28;20217;-75
2022/07/20 11:26:31;;;;;;;0.00;0.00;;;;;;;;;;5034706;28;20294;-74
2022/07/20 11:28:59;;;;;;;0.00;0.00;;;;;;;;;;5026303;28;20263;-73
2022/07/20 11:31:29;;;;;;;0.00;0.00;;;;;;;;;;5030402;28;20215;-73
2022/07/20 11:33:57;;;;;;;0.00;0.00;;;;;;;;;;5030929;28;20218;-74
2022/07/20 11:36:26;;;;;;;0.00;0.00;;;;;;;;;;5033314;28;20726;-73
2022/07/20 11:38:54;;;;;;;0.00;0.00;;;;;;;;;;5020508;28;20224;-73
2022/07/20 11:41:22;;;;;;;0.00;0.00;;;;;;;;;;5033928;28;20278;-73
2022/07/20 11:43:50;;;;;;;0.00;0.00;;;;;;;;;;5014130;28;20214;-74
2022/07/20 11:46:20;;;;;;;0.00;0.00;;;;;;;;;;5020546;28;20308;-73
2022/07/20 11:48:53;;;;;;;0.00;0.00;;;;;;;;;;5030944;28;20208;-72
2022/07/20 11:51:21;;;;;;;0.00;0.00;;;;;;;;;;5020467;28;20207;-73
2022/07/20 11:53:49;;;;;;;0.00;0.00;;;;;;;;;;5037298;28;20204;-74
2022/07/20 11:56:18;;;;;;;0.00;0.00;;;;;;;;;;5027683;28;20218;-75
2022/07/20 11:58:47;;;;;;;0.00;0.00;;;;;;;;;;5032247;28;20219;-74
2022/07/20 12:01:17;;;;;;;0.00;0.00;;;;;;;;;;5033677;28;20207;-73
2022/07/20 12:03:48;;;;;;;0.00;0.00;;;;;;;;;;5018324;28;20211;-72
2022/07/20 12:06:17;;;;;;;0.00;0.00;;;;;;;;;;5027525;28;20224;-73
2022/07/20 12:08:45;;;;;;;0.00;0.00;;;;;;;;;;5021229;28;20199;-73
2022/07/20 12:11:12;;;;;;;0.00;0.00;;;38.50;90.70;;;;;;5027851;28;20854;-73
2022/07/20 12:13:48;;;;;;;0.00;0.00;;;38.40;90.20;;;;;;5023506;28;20209;-73
2022/07/20 12:16:17;;;;;;;0.00;0.00;;;38.30;90.40;;;;;;5017878;28;20354;-73
2022/07/20 12:18:46;;;;;;;0.00;0.00;;;38.40;90.90;;;;;;5031317;28;20306;-73
2022/07/20 12:21:22;;;;;;;0.00;0.00;;;38.40;90.20;;;;;;5038541;28;20226;-73
2022/07/20 12:23:50;;;;;;;0.00;0.00;;;38.40;91.40;;;;;;5033609;28;20205;-73
2022/07/20 12:26:27;;;;;;;0.00;0.00;;;38.50;91.00;;;;;;5031681;28;20665;-70
2022/07/20 12:28:56;;;;;;;0.00;0.00;;;38.50;90.50;;;;;;5044286;28;20206;-71
2022/07/20 12:31:48;;;;;;;0.00;0.00;;;38.50;90.50;;;;;;5053770;28;20200;-72
2022/07/20 12:34:15;;;;;;;0.00;0.00;;;38.30;88.90;;;;;;5033685;28;20992;-71
2022/07/20 12:36:46;;;;;;;0.00;0.00;;;38.30;90.40;;;;;;5032756;28;20294;-73
2022/07/20 12:39:15;;;;;;;0.00;0.00;;;38.30;90.70;;;;;;5049896;28;20204;-74
2022/07/20 12:41:43;;;;;;;0.00;0.00;;;38.30;90.30;;;;;;5055726;28;20202;-73
2022/07/20 12:48:43;;;;;;;0.00;0.00;;;38.00;89.60;;;;;;5031898;28;20239;-73
2022/07/20 12:51:11;;;;;;;0.00;0.00;;;37.80;90.20;;;;;;5025994;28;20207;-73
2022/07/20 12:53:42;;;;;;;0.00;0.00;;;37.60;88.70;;;;;;5023808;28;20247;-74
2022/07/20 12:56:11;;;;;;;0.00;0.00;;;37.50;89.70;;;;;;5055421;28;20223;-73
2022/07/20 12:58:38;;;;;;;0.00;0.00;;;37.50;90.30;;;;;;5041474;28;20199;-72
2022/07/20 13:01:05;;;;;;;0.00;0.00;;;37.40;88.30;;;;;;5035290;28;20289;-73
2022/07/20 13:03:33;;;;;;;0.00;0.00;;;37.50;90.30;;;;;;5057456;28;20281;-72
2022/07/20 13:06:00;;;;;;;0.00;0.00;;;37.50;89.20;;;;;;5059547;28;20245;-74
2022/07/20 13:08:28;;;;;;;0.00;0.00;;;37.60;90.00;;;;;;5045689;28;20318;-74
2022/07/20 13:10:56;;;;;;;0.00;0.00;;;37.70;90.40;;;;;;5042095;28;20289;-74
2022/07/20 13:13:23;;;;;;;0.00;0.00;;;37.70;90.10;;;;;;5031582;28;20223;-73
2022/07/20 13:15:51;;;;;;;0.00;0.00;;;37.70;89.80;;;;;;5034760;28;20232;-74
2022/07/20 13:18:17;;;;;;;0.00;0.00;;;37.60;88.90;;;;;;5053705;28;20195;-74
2022/07/20 13:20:46;;;;;;;0.00;0.00;;;37.60;90.00;;;;;;5048595;28;20207;-74
2022/07/20 13:23:14;;;;;;;0.00;0.00;;;37.60;90.30;;;;;;5033359;28;20209;-74
2022/07/20 13:25:41;;;;;;;0.00;0.00;;;37.60;89.80;;;;;;5032640;28;20327;-73
2022/07/20 13:28:11;;;;;;;0.00;0.00;;;37.50;88.50;;;;;;5040603;28;20229;-74
2022/07/20 13:30:38;;;;;;;0.00;0.00;;;37.60;90.20;;;;;;5043742;28;20207;-74
2022/07/20 13:33:06;;;;;;;0.00;0.00;;;37.60;89.40;;;;;;5052631;28;20236;-74
2022/07/20 13:35:33;;;;;;;0.00;0.00;;;37.60;89.60;;;;;;5047331;28;20290;-74
2022/07/20 13:38:00;;;;;;;0.00;0.00;;;37.60;88.40;;;;;;5034918;28;20210;-74
2022/07/20 13:40:27;;;;;;;0.00;0.00;;;37.60;88.90;;;;;;5025568;28;20207;-74
2022/07/20 13:42:55;;;;;;;0.00;0.00;;;37.60;88.60;;;;;;5033534;28;20229;-74